<?xml version="1.0" encoding="utf-8"?>
<gpx xmlns:xsi="http://www.w3.org/2001/XMLSchema-instance" xmlns:xsd="http://www.w3.org/2001/XMLSchema" version="1.1" creator="Shapelink.com" xmlns="http://www.topografix.com/GPX/1/1" xmlns:gpxtpx="http://www.garmin.com/xmlschemas/TrackPointExtension/v1">
  <metadata>
    <name>Övrigt 1.95 km, 2019-06-01</name>
    <desc></desc>
    <author><name>Marian Moron</name></author> 
    <time>2019-06-01T21:30:45Z</time>
  </metadata>
  <trk>
    <name>Övrigt 1.95 km, 2019-06-01</name>
    <trkseg>
      <trkpt lat="51.229726715282" lon="4.457760210049">
        <ele>11.8</ele>
        <time>2019-06-01T21:30:45Z</time>
      </trkpt>
      <trkpt lat="51.229837188724" lon="4.457947964609">
        <ele>0</ele>
        <time>2019-06-01T21:30:47Z</time>
      </trkpt>
      <trkpt lat="51.229842217864" lon="4.458018624026">
        <ele>0</ele>
        <time>2019-06-01T21:30:49Z</time>
      </trkpt>
      <trkpt lat="51.229903405734" lon="4.457987862453">
        <ele>6.2</ele>
        <time>2019-06-01T21:31:11Z</time>
      </trkpt>
      <trkpt lat="51.229851018859" lon="4.457950143903">
        <ele>3.4</ele>
        <time>2019-06-01T21:31:15Z</time>
      </trkpt>
      <trkpt lat="51.22977717432" lon="4.458005380624">
        <ele>0.4</ele>
        <time>2019-06-01T21:32:00Z</time>
      </trkpt>
      <trkpt lat="51.22993894499" lon="4.457954418672">
        <ele>1.6</ele>
        <time>2019-06-01T21:32:18Z</time>
      </trkpt>
      <trkpt lat="51.229950931107" lon="4.458194560107">
        <ele>1.6</ele>
        <time>2019-06-01T21:32:29Z</time>
      </trkpt>
      <trkpt lat="51.230019243592" lon="4.458821526227">
        <ele>1.4</ele>
        <time>2019-06-01T21:32:55Z</time>
      </trkpt>
      <trkpt lat="51.230420736602" lon="4.458712812984">
        <ele>7.6</ele>
        <time>2019-06-01T21:33:25Z</time>
      </trkpt>
      <trkpt lat="51.230870341718" lon="4.458574260177">
        <ele>5.4</ele>
        <time>2019-06-01T21:34:00Z</time>
      </trkpt>
      <trkpt lat="51.230883249844" lon="4.458568811942">
        <ele>5.4</ele>
        <time>2019-06-01T21:34:01Z</time>
      </trkpt>
      <trkpt lat="51.231007301964" lon="4.458531512487">
        <ele>5</ele>
        <time>2019-06-01T21:34:11Z</time>
      </trkpt>
      <trkpt lat="51.231175107602" lon="4.458478706517">
        <ele>4.6</ele>
        <time>2019-06-01T21:34:36Z</time>
      </trkpt>
      <trkpt lat="51.231255909118" lon="4.458347445963">
        <ele>3</ele>
        <time>2019-06-01T21:34:57Z</time>
      </trkpt>
      <trkpt lat="51.231411980096" lon="4.458321126797">
        <ele>2.4</ele>
        <time>2019-06-01T21:35:16Z</time>
      </trkpt>
      <trkpt lat="51.231455565976" lon="4.458383152857">
        <ele>2.8</ele>
        <time>2019-06-01T21:35:22Z</time>
      </trkpt>
      <trkpt lat="51.231554304758" lon="4.458464541106">
        <ele>2.4</ele>
        <time>2019-06-01T21:35:39Z</time>
      </trkpt>
      <trkpt lat="51.231700485094" lon="4.458928898366">
        <ele>0.6</ele>
        <time>2019-06-01T21:36:12Z</time>
      </trkpt>
      <trkpt lat="51.231815233305" lon="4.45947338659">
        <ele>3</ele>
        <time>2019-06-01T21:36:58Z</time>
      </trkpt>
      <trkpt lat="51.231811629088" lon="4.459562989101">
        <ele>3.2</ele>
        <time>2019-06-01T21:37:05Z</time>
      </trkpt>
      <trkpt lat="51.231893184975" lon="4.459951071071">
        <ele>0.4</ele>
        <time>2019-06-01T21:37:29Z</time>
      </trkpt>
      <trkpt lat="51.231915816105" lon="4.460037656098">
        <ele>0.2</ele>
        <time>2019-06-01T21:37:34Z</time>
      </trkpt>
      <trkpt lat="51.231890921862" lon="4.460323730345">
        <ele>13.8</ele>
        <time>2019-06-01T21:37:58Z</time>
      </trkpt>
      <trkpt lat="51.231908020938" lon="4.460482902626">
        <ele>10</ele>
        <time>2019-06-01T21:38:30Z</time>
      </trkpt>
      <trkpt lat="51.231926964032" lon="4.460777023497">
        <ele>4.2</ele>
        <time>2019-06-01T21:38:49Z</time>
      </trkpt>
      <trkpt lat="51.23191791158" lon="4.461372557492">
        <ele>1.2</ele>
        <time>2019-06-01T21:39:23Z</time>
      </trkpt>
      <trkpt lat="51.232048333944" lon="4.461552600704">
        <ele>0.4</ele>
        <time>2019-06-01T21:39:52Z</time>
      </trkpt>
      <trkpt lat="51.232119747732" lon="4.461641365025">
        <ele>0</ele>
        <time>2019-06-01T21:40:05Z</time>
      </trkpt>
      <trkpt lat="51.232225108215" lon="4.461903047943">
        <ele>0</ele>
        <time>2019-06-01T21:40:23Z</time>
      </trkpt>
      <trkpt lat="51.232250589191" lon="4.46217487296">
        <ele>0</ele>
        <time>2019-06-01T21:40:38Z</time>
      </trkpt>
      <trkpt lat="51.232337928589" lon="4.462480644672">
        <ele>1.6</ele>
        <time>2019-06-01T21:41:05Z</time>
      </trkpt>
      <trkpt lat="51.23239316531" lon="4.462848274806">
        <ele>4.2</ele>
        <time>2019-06-01T21:41:31Z</time>
      </trkpt>
      <trkpt lat="51.232422669598" lon="4.462956988049">
        <ele>4.6</ele>
        <time>2019-06-01T21:41:41Z</time>
      </trkpt>
      <trkpt lat="51.23241495825" lon="4.463008536734">
        <ele>4.2</ele>
        <time>2019-06-01T21:41:44Z</time>
      </trkpt>
      <trkpt lat="51.23241412006" lon="4.463148095369">
        <ele>4.8</ele>
        <time>2019-06-01T21:41:58Z</time>
      </trkpt>
      <trkpt lat="51.232512104471" lon="4.463600969426">
        <ele>3.2</ele>
        <time>2019-06-01T21:42:28Z</time>
      </trkpt>
      <trkpt lat="51.232498609612" lon="4.464266408467">
        <ele>8.4</ele>
        <time>2019-06-01T21:43:07Z</time>
      </trkpt>
      <trkpt lat="51.232510008996" lon="4.464286357389">
        <ele>8.8</ele>
        <time>2019-06-01T21:43:09Z</time>
      </trkpt>
      <trkpt lat="51.232849727403" lon="4.46475482178">
        <ele>11.6</ele>
        <time>2019-06-01T21:43:53Z</time>
      </trkpt>
      <trkpt lat="51.233040499447" lon="4.464833192545">
        <ele>8.6</ele>
        <time>2019-06-01T21:44:19Z</time>
      </trkpt>
      <trkpt lat="51.233164383929" lon="4.464591039454">
        <ele>10</ele>
        <time>2019-06-01T21:44:38Z</time>
      </trkpt>
      <trkpt lat="51.233181818281" lon="4.464553237085">
        <ele>9.4</ele>
        <time>2019-06-01T21:44:41Z</time>
      </trkpt>
      <trkpt lat="51.233198498262" lon="4.464545441918">
        <ele>8.6</ele>
        <time>2019-06-01T21:44:45Z</time>
      </trkpt>
      <trkpt lat="51.233239904848" lon="4.464598834621">
        <ele>5.6</ele>
        <time>2019-06-01T21:44:59Z</time>
      </trkpt>
      <trkpt lat="51.233207466895" lon="4.464478302899">
        <ele>6.4</ele>
        <time>2019-06-01T21:45:05Z</time>
      </trkpt>
      <trkpt lat="51.23331768888" lon="4.464214356868">
        <ele>5.4</ele>
        <time>2019-06-01T21:45:22Z</time>
      </trkpt>
      <trkpt lat="51.233405363554" lon="4.463723428985">
        <ele>1.6</ele>
        <time>2019-06-01T21:45:53Z</time>
      </trkpt>
      <trkpt lat="51.233312575921" lon="4.463088919155">
        <ele>0</ele>
        <time>2019-06-01T21:46:38Z</time>
      </trkpt>
      <trkpt lat="51.233295560664" lon="4.462940308068">
        <ele>0</ele>
        <time>2019-06-01T21:46:49Z</time>
      </trkpt>
      <trkpt lat="51.233274522095" lon="4.462812987007">
        <ele>0.4</ele>
        <time>2019-06-01T21:46:57Z</time>
      </trkpt>
      <trkpt lat="51.233241665047" lon="4.462387018849">
        <ele>6.2</ele>
        <time>2019-06-01T21:47:29Z</time>
      </trkpt>
      <trkpt lat="51.23324644273" lon="4.462335302526">
        <ele>7</ele>
        <time>2019-06-01T21:47:32Z</time>
      </trkpt>
      <trkpt lat="51.233237557916" lon="4.462305127686">
        <ele>7.2</ele>
        <time>2019-06-01T21:47:34Z</time>
      </trkpt>
      <trkpt lat="51.233175867132" lon="4.462160372273">
        <ele>5.8</ele>
        <time>2019-06-01T21:47:44Z</time>
      </trkpt>
      <trkpt lat="51.233163545739" lon="4.461783605868">
        <ele>8</ele>
        <time>2019-06-01T21:48:12Z</time>
      </trkpt>
      <trkpt lat="51.233121217144" lon="4.461552265428">
        <ele>7.6</ele>
        <time>2019-06-01T21:48:27Z</time>
      </trkpt>
      <trkpt lat="51.233022897457" lon="4.460975087794">
        <ele>9.6</ele>
        <time>2019-06-01T21:48:58Z</time>
      </trkpt>
      <trkpt lat="51.232952824773" lon="4.46036019161">
        <ele>8.8</ele>
        <time>2019-06-01T21:49:45Z</time>
      </trkpt>
      <trkpt lat="51.23288183008" lon="4.460018293909">
        <ele>6.2</ele>
        <time>2019-06-01T21:50:06Z</time>
      </trkpt>
      <trkpt lat="51.232801782935" lon="4.459635492536">
        <ele>3.2</ele>
        <time>2019-06-01T21:50:30Z</time>
      </trkpt>
      <trkpt lat="51.232686364172" lon="4.458934514239">
        <ele>4.6</ele>
        <time>2019-06-01T21:51:11Z</time>
      </trkpt>
      <trkpt lat="51.232634312573" lon="4.458695378632">
        <ele>1.6</ele>
        <time>2019-06-01T21:51:26Z</time>
      </trkpt>
      <trkpt lat="51.232544207148" lon="4.458303943902">
        <ele>0.8</ele>
        <time>2019-06-01T21:51:51Z</time>
      </trkpt>
      <trkpt lat="51.23248955716" lon="4.458011499411">
        <ele>0.2</ele>
        <time>2019-06-01T21:52:10Z</time>
      </trkpt>
      <trkpt lat="51.232363158108" lon="4.457461898228">
        <ele>0</ele>
        <time>2019-06-01T21:52:43Z</time>
      </trkpt>
      <trkpt lat="51.232362068461" lon="4.457431136655">
        <ele>0</ele>
        <time>2019-06-01T21:52:45Z</time>
      </trkpt>
      <trkpt lat="51.23209979881" lon="4.456843900741">
        <ele>35.4</ele>
        <time>2019-06-01T21:53:56Z</time>
      </trkpt>
      <trkpt lat="51.23192629348" lon="4.45666293552">
        <ele>31.6</ele>
        <time>2019-06-01T21:54:13Z</time>
      </trkpt>
      <trkpt lat="51.231501163512" lon="4.456395301453">
        <ele>19.4</ele>
        <time>2019-06-01T21:54:49Z</time>
      </trkpt>
      <trkpt lat="51.2313714117" lon="4.456553384087">
        <ele>7.8</ele>
        <time>2019-06-01T21:55:11Z</time>
      </trkpt>
      <trkpt lat="51.231346266" lon="4.456893856865">
        <ele>3.2</ele>
        <time>2019-06-01T21:55:30Z</time>
      </trkpt>
      <trkpt lat="51.231336626815" lon="4.456946159921">
        <ele>2.2</ele>
        <time>2019-06-01T21:55:33Z</time>
      </trkpt>
      <trkpt lat="51.231198074008" lon="4.457654179014">
        <ele>3.6</ele>
        <time>2019-06-01T21:56:21Z</time>
      </trkpt>
      <trkpt lat="51.231269320158" lon="4.457873114242">
        <ele>2</ele>
        <time>2019-06-01T21:57:07Z</time>
      </trkpt>
      <trkpt lat="51.231235457282" lon="4.457828690172">
        <ele>3</ele>
        <time>2019-06-01T21:57:12Z</time>
      </trkpt>
      <trkpt lat="51.231183154226" lon="4.457797593323">
        <ele>4.6</ele>
        <time>2019-06-01T21:57:19Z</time>
      </trkpt>
      <trkpt lat="51.231182986588" lon="4.457789211423">
        <ele>4.8</ele>
        <time>2019-06-01T21:57:23Z</time>
      </trkpt>
      <trkpt lat="51.231179633828" lon="4.45776431718">
        <ele>4.8</ele>
        <time>2019-06-01T21:57:25Z</time>
      </trkpt>
      <trkpt lat="51.231116266664" lon="4.457654346652">
        <ele>4.8</ele>
        <time>2019-06-01T21:57:39Z</time>
      </trkpt>
      <trkpt lat="51.230717372043" lon="4.457715953617">
        <ele>0.6</ele>
        <time>2019-06-01T21:58:17Z</time>
      </trkpt>
      <trkpt lat="51.230262402511" lon="4.457820392091">
        <ele>2</ele>
        <time>2019-06-01T21:59:02Z</time>
      </trkpt>
      <trkpt lat="51.229830147928" lon="4.457948299885">
        <ele>5.2</ele>
        <time>2019-06-01T21:59:37Z</time>
      </trkpt>
      <trkpt lat="51.229645997585" lon="4.457947294057">
        <ele>0.4</ele>
        <time>2019-06-01T22:00:02Z</time>
      </trkpt>
      <trkpt lat="51.229604674818" lon="4.457964225495">
        <ele>0.8</ele>
        <time>2019-06-01T22:00:15Z</time>
      </trkpt>
      <trkpt lat="51.22966820962" lon="4.457893733716">
        <ele>1.2</ele>
        <time>2019-06-01T22:00:32Z</time>
      </trkpt>
    </trkseg>
  </trk>
</gpx>